createdAt,value
2022-08-16T00:01:33.802Z,24.50
2022-08-16T00:04:19.800Z,24.10
2022-08-16T00:07:06.648Z,23.90
2022-08-16T00:09:52.302Z,24.30
2022-08-16T00:12:41.958Z,24.40
2022-08-16T00:15:51.781Z,24.30
2022-08-16T00:18:39.947Z,24.30
2022-08-16T00:21:29.150Z,24.60
2022-08-16T00:24:31.374Z,25.10
2022-08-16T00:27:19.005Z,25.40
2022-08-16T00:30:19.869Z,25.00
2022-08-16T00:33:14.733Z,24.60
2022-08-16T00:36:00.352Z,24.20
2022-08-16T00:38:47.132Z,24.60
2022-08-16T00:41:38.251Z,24.60
2022-08-16T00:44:31.967Z,24.40
2022-08-16T00:47:19.311Z,24.30
2022-08-16T00:50:11.567Z,24.40
2022-08-16T00:52:59.669Z,24.60
2022-08-16T00:55:50.396Z,25.00
2022-08-16T00:58:41.411Z,24.80
2022-08-16T01:01:32.894Z,24.70
2022-08-16T01:04:30.265Z,24.70
2022-08-16T01:07:17.681Z,24.60
2022-08-16T01:10:04.799Z,24.70
2022-08-16T01:13:15.055Z,24.90
2022-08-16T01:16:10.817Z,24.80
2022-08-16T01:19:15.351Z,24.80
2022-08-16T01:22:11.260Z,24.60
2022-08-16T01:25:34.186Z,24.30
2022-08-16T01:28:30.931Z,24.30
2022-08-16T01:31:20.258Z,23.90
2022-08-16T01:34:22.839Z,23.90
2022-08-16T01:37:16.260Z,24.10
2022-08-16T01:40:07.066Z,24.30
2022-08-16T01:42:55.492Z,24.00
2022-08-16T01:45:44.506Z,24.00
2022-08-16T01:48:33.625Z,23.90
2022-08-16T01:51:23.914Z,23.50
2022-08-16T01:54:09.855Z,23.30
2022-08-16T01:57:08.757Z,23.40
2022-08-16T02:00:00.242Z,23.40
2022-08-16T02:02:52.181Z,23.40
2022-08-16T02:05:46.677Z,23.40
2022-08-16T02:08:37.562Z,23.50
2022-08-16T02:11:26.232Z,23.50
2022-08-16T02:14:34.135Z,23.50
2022-08-16T02:17:20.316Z,23.40
2022-08-16T02:20:11.526Z,23.40
2022-08-16T02:23:00.124Z,23.10
2022-08-16T02:25:51.921Z,23.10
2022-08-16T02:28:46.983Z,23.00
2022-08-16T02:32:04.610Z,23.10
2022-08-16T02:34:40.784Z,23.50
2022-08-16T02:37:51.501Z,23.90
2022-08-16T02:40:34.394Z,24.00
2022-08-16T02:43:20.184Z,24.10
2022-08-16T02:46:12.913Z,24.10
2022-08-16T02:49:02.694Z,24.70
2022-08-16T02:51:49.153Z,24.80
2022-08-16T02:54:36.759Z,24.30
2022-08-16T02:57:23.323Z,23.90
2022-08-16T03:00:34.285Z,23.70
2022-08-16T03:03:19.639Z,23.70
2022-08-16T03:06:41.623Z,23.80
2022-08-16T03:09:19.390Z,23.80
2022-08-16T03:12:09.769Z,23.40
2022-08-16T03:15:03.029Z,23.40
2022-08-16T03:17:52.959Z,23.90
2022-08-16T03:20:39.698Z,23.70
2022-08-16T03:23:27.439Z,24.10
2022-08-16T03:26:21.899Z,23.60
2022-08-16T03:29:12.163Z,23.10
2022-08-16T03:32:01.561Z,22.80
2022-08-16T03:34:49.769Z,22.60
2022-08-16T03:38:02.402Z,22.90
2022-08-16T03:40:43.162Z,23.20
2022-08-16T03:43:51.832Z,23.10
2022-08-16T03:46:48.162Z,22.80
2022-08-16T03:49:56.562Z,22.50
2022-08-16T03:52:43.795Z,22.90
2022-08-16T03:55:45.190Z,22.80
2022-08-16T03:58:31.472Z,22.70
2022-08-16T04:01:21.389Z,22.70
2022-08-16T04:04:08.548Z,22.60
2022-08-16T04:06:54.880Z,22.70
2022-08-16T04:09:42.830Z,22.70
2022-08-16T04:12:53.823Z,22.80
2022-08-16T04:15:34.070Z,22.50
2022-08-16T04:18:42.766Z,22.10
2022-08-16T04:21:35.133Z,22.20
2022-08-16T04:24:21.840Z,22.00
2022-08-16T04:27:14.592Z,22.10
2022-08-16T04:30:02.847Z,22.00
2022-08-16T04:32:53.822Z,22.20
2022-08-16T04:35:43.108Z,22.10
2022-08-16T04:38:35.688Z,21.90
2022-08-16T04:41:32.675Z,21.80
2022-08-16T04:44:32.756Z,22.00
2022-08-16T04:47:35.830Z,21.80
2022-08-16T04:50:30.399Z,22.20
2022-08-16T04:53:33.902Z,22.40
2022-08-16T04:56:20.190Z,22.60
2022-08-16T04:59:08.597Z,22.70
2022-08-16T05:01:58.754Z,23.00
2022-08-16T05:04:45.458Z,22.80
2022-08-16T05:07:31.213Z,22.70
2022-08-16T05:10:22.781Z,22.80
2022-08-16T05:13:15.547Z,22.60
2022-08-16T05:16:02.185Z,22.70
2022-08-16T05:18:52.982Z,23.00
2022-08-16T05:21:38.904Z,23.00
2022-08-16T05:24:28.584Z,22.60
2022-08-16T05:27:15.170Z,22.70
2022-08-16T05:30:16.672Z,22.80
2022-08-16T05:33:09.108Z,22.90
2022-08-16T05:36:04.152Z,22.70
2022-08-16T05:39:07.769Z,22.90
2022-08-16T05:41:55.188Z,22.90
2022-08-16T05:44:41.121Z,22.90
2022-08-16T05:47:30.377Z,22.70
2022-08-16T05:50:18.910Z,23.20
2022-08-16T05:53:07.612Z,23.10
2022-08-16T05:56:01.986Z,23.10
2022-08-16T05:58:52.333Z,22.70
2022-08-16T06:01:40.600Z,23.10
2022-08-16T06:04:35.219Z,23.40
2022-08-16T06:07:26.492Z,23.80
2022-08-16T06:10:35.774Z,23.60
2022-08-16T06:13:23.305Z,24.10
2022-08-16T06:16:09.521Z,24.50
2022-08-16T06:19:05.215Z,24.80
2022-08-16T06:21:55.271Z,24.70
2022-08-16T06:24:54.126Z,24.40
2022-08-16T06:27:57.419Z,23.80
2022-08-16T06:30:49.478Z,24.20
2022-08-16T06:33:41.210Z,24.50
2022-08-16T06:36:29.457Z,24.80
2022-08-16T06:39:49.302Z,25.00
2022-08-16T06:43:08.227Z,24.80
2022-08-16T06:46:10.078Z,24.70
2022-08-16T06:48:56.992Z,24.70
2022-08-16T06:51:48.306Z,24.70
2022-08-16T06:54:39.519Z,25.20
2022-08-16T06:57:25.280Z,25.60
2022-08-16T07:00:17.549Z,25.90
2022-08-16T07:03:32.222Z,26.10
2022-08-16T07:06:26.454Z,25.80
2022-08-16T07:09:20.372Z,25.80
2022-08-16T07:12:07.174Z,25.70
2022-08-16T07:15:00.739Z,25.60
2022-08-16T07:17:49.726Z,26.00
2022-08-16T07:20:47.759Z,26.20
2022-08-16T07:23:38.784Z,26.80
2022-08-16T07:26:26.477Z,27.50
2022-08-16T07:29:16.113Z,27.40
2022-08-16T07:32:03.119Z,27.00
2022-08-16T07:34:50.557Z,26.80
2022-08-16T07:37:38.308Z,26.60
2022-08-16T07:40:59.130Z,26.10
2022-08-16T07:43:41.930Z,25.90
2022-08-16T07:46:39.013Z,26.10
2022-08-16T07:49:35.335Z,26.40
2022-08-16T07:52:24.213Z,26.50
2022-08-16T07:55:18.627Z,27.20
2022-08-16T07:58:05.022Z,27.80
2022-08-16T08:00:53.530Z,28.10
2022-08-16T08:03:44.906Z,28.20
2022-08-16T08:06:34.579Z,27.90
2022-08-16T08:09:27.741Z,28.20
2022-08-16T08:12:32.354Z,27.90
2022-08-16T08:15:25.443Z,27.10
2022-08-16T08:18:29.714Z,27.30
2022-08-16T08:21:19.431Z,27.50
2022-08-16T08:24:15.522Z,27.50
2022-08-16T08:27:04.058Z,27.00
2022-08-16T08:30:49.402Z,27.70
2022-08-16T08:33:01.065Z,28.60
2022-08-16T08:36:01.119Z,29.00
2022-08-16T08:38:47.896Z,29.70
2022-08-16T08:41:39.683Z,29.20
2022-08-16T08:44:28.407Z,30.30
2022-08-16T08:47:22.909Z,30.60
2022-08-16T08:50:09.016Z,30.30
2022-08-16T08:52:56.489Z,30.90
2022-08-16T08:55:46.216Z,30.90
2022-08-16T08:58:54.899Z,30.80
2022-08-16T09:01:56.983Z,30.70
2022-08-16T09:04:47.809Z,34.00
2022-08-16T09:08:00.837Z,32.70
2022-08-16T09:11:02.041Z,33.00
2022-08-16T09:13:49.487Z,34.70
2022-08-16T09:17:00.797Z,35.40
2022-08-16T09:19:45.071Z,35.80
2022-08-16T09:22:31.632Z,35.80
2022-08-16T09:25:25.788Z,36.20
2022-08-16T09:28:12.575Z,35.80
2022-08-16T09:31:35.013Z,33.50
2022-08-16T09:34:26.766Z,32.80
2022-08-16T09:37:18.104Z,33.30
2022-08-16T09:40:31.949Z,36.40
2022-08-16T09:43:46.505Z,36.00
2022-08-16T09:46:45.007Z,33.70
2022-08-16T09:49:36.789Z,32.30
2022-08-16T09:52:23.154Z,33.40
2022-08-16T09:55:12.584Z,34.00
2022-08-16T09:57:59.935Z,35.80
2022-08-16T10:00:46.075Z,35.20
2022-08-16T10:03:32.160Z,35.40
2022-08-16T10:06:21.579Z,34.90
2022-08-16T10:09:11.388Z,35.40
2022-08-16T10:12:19.336Z,37.70
2022-08-16T10:15:10.162Z,36.20
2022-08-16T10:18:56.058Z,36.20
2022-08-16T10:21:15.747Z,36.30
2022-08-16T10:24:02.579Z,35.80
2022-08-16T10:27:19.390Z,37.10
2022-08-16T10:30:01.032Z,36.00
2022-08-16T10:32:52.953Z,36.30
2022-08-16T10:35:46.550Z,35.90
2022-08-16T10:38:36.748Z,34.20
2022-08-16T10:41:25.513Z,36.50
2022-08-16T10:44:11.364Z,37.60
2022-08-16T10:46:57.049Z,36.70
2022-08-16T10:49:43.274Z,36.80
2022-08-16T10:58:23.627Z,33.80
2022-08-16T11:01:43.065Z,35.00
2022-08-16T11:05:05.471Z,34.40
2022-08-16T11:07:55.198Z,34.50
2022-08-16T11:11:07.524Z,34.70
2022-08-16T11:14:01.436Z,36.00
2022-08-16T11:17:02.753Z,35.20
2022-08-16T11:20:41.343Z,36.80
2022-08-16T11:23:03.210Z,37.50
2022-08-16T11:26:20.646Z,37.30
2022-08-16T11:29:13.999Z,37.40
2022-08-16T11:32:02.326Z,36.00
2022-08-16T11:35:11.002Z,35.30
2022-08-16T11:38:42.261Z,37.10
2022-08-16T11:41:11.752Z,36.50
2022-08-16T11:43:58.128Z,40.10
2022-08-16T11:46:46.672Z,41.20
2022-08-16T11:49:32.485Z,38.10
2022-08-16T11:52:18.789Z,36.00
2022-08-16T11:55:12.393Z,37.00
2022-08-16T11:57:58.091Z,37.90
2022-08-16T12:00:50.461Z,37.40
2022-08-16T12:03:46.141Z,37.30
2022-08-16T12:06:33.718Z,37.30
2022-08-16T12:09:19.952Z,38.00
2022-08-16T12:12:06.618Z,37.20
2022-08-16T12:15:00.286Z,39.50
2022-08-16T12:17:47.674Z,41.30
2022-08-16T12:20:40.201Z,42.80
2022-08-16T12:23:26.741Z,42.00
2022-08-16T12:26:12.492Z,38.30
2022-08-16T12:29:00.898Z,38.20
2022-08-16T12:32:00.426Z,37.20
2022-08-16T12:34:52.931Z,37.70
2022-08-16T12:37:41.522Z,36.90
2022-08-16T12:40:33.999Z,35.50
2022-08-16T12:43:23.501Z,36.40
2022-08-16T12:46:10.775Z,37.10
2022-08-16T12:48:59.103Z,38.20
2022-08-16T12:51:58.560Z,36.00
2022-08-16T12:54:45.780Z,35.70
2022-08-16T12:57:41.888Z,37.40
2022-08-16T13:00:33.964Z,37.60
2022-08-16T13:03:21.466Z,37.50
2022-08-16T13:06:07.953Z,37.50
2022-08-16T13:30:47.764Z,32.10
2022-08-16T13:33:37.888Z,32.40
2022-08-16T13:36:47.935Z,32.90
2022-08-16T13:39:32.028Z,33.10
2022-08-16T13:42:20.338Z,33.10
2022-08-16T13:45:09.974Z,32.50
2022-08-16T13:48:02.446Z,32.20
2022-08-16T13:50:52.142Z,32.50
2022-08-16T13:53:38.240Z,32.30
2022-08-16T13:56:38.215Z,32.90
2022-08-16T13:59:25.383Z,32.80
2022-08-16T14:02:15.208Z,32.70
2022-08-16T14:05:02.744Z,33.00
2022-08-16T14:07:52.721Z,32.40
2022-08-16T14:10:39.073Z,32.40
2022-08-16T14:13:24.669Z,32.40
2022-08-16T14:16:12.732Z,32.20
2022-08-16T14:19:11.080Z,32.10
2022-08-16T14:22:14.404Z,32.30
2022-08-16T14:25:03.232Z,32.40
2022-08-16T14:27:54.668Z,32.30
2022-08-16T14:30:45.409Z,32.20
2022-08-16T14:33:33.023Z,32.90
2022-08-16T14:36:29.825Z,32.90
2022-08-16T14:39:15.820Z,32.40
2022-08-16T14:42:13.708Z,32.20
2022-08-16T14:45:01.694Z,32.50
2022-08-16T14:47:49.726Z,32.80
2022-08-16T14:50:36.192Z,32.70
2022-08-16T14:53:24.358Z,32.90
2022-08-16T14:56:14.977Z,32.90
2022-08-16T14:59:03.058Z,32.80
2022-08-16T15:01:59.894Z,32.60
2022-08-16T15:04:48.045Z,32.60
2022-08-16T15:07:35.539Z,32.70
2022-08-16T15:10:24.502Z,32.90
2022-08-16T15:13:13.802Z,32.90
2022-08-16T15:16:03.149Z,33.20
2022-08-16T15:18:49.639Z,32.60
2022-08-16T15:21:35.845Z,32.60
2022-08-16T15:24:22.633Z,32.80
2022-08-16T15:27:10.654Z,32.90
2022-08-16T15:29:57.814Z,33.10
2022-08-16T15:32:43.888Z,32.90
2022-08-16T15:35:33.400Z,32.40
2022-08-16T15:38:54.934Z,32.30
2022-08-16T15:41:42.998Z,32.50
2022-08-16T15:44:38.918Z,32.60
2022-08-16T15:47:37.754Z,33.20
2022-08-16T15:50:24.600Z,33.20
2022-08-16T15:53:17.415Z,33.20
2022-08-16T15:56:05.416Z,33.30
2022-08-16T15:58:51.574Z,33.40
2022-08-16T16:01:41.526Z,33.30
2022-08-16T16:04:28.592Z,33.40
2022-08-16T16:07:14.772Z,33.50
2022-08-16T16:10:02.566Z,32.50
2022-08-16T16:12:54.276Z,32.50
2022-08-16T16:15:46.368Z,32.40
2022-08-16T16:18:34.270Z,32.40
2022-08-16T16:21:20.648Z,32.60
2022-08-16T16:24:23.654Z,32.60
2022-08-16T16:27:09.703Z,32.60
2022-08-16T16:30:43.004Z,32.70
2022-08-16T16:33:30.822Z,32.30
2022-08-16T16:36:19.297Z,32.20
2022-08-16T16:39:07.692Z,32.10
2022-08-16T16:41:54.901Z,31.90
2022-08-16T16:44:50.271Z,31.90
2022-08-16T16:47:41.548Z,31.80
2022-08-16T16:50:45.746Z,31.70
2022-08-16T16:53:31.762Z,31.80
2022-08-16T16:56:19.919Z,31.80
2022-08-16T16:59:09.944Z,31.80
2022-08-16T17:02:38.176Z,31.80
2022-08-16T17:05:03.988Z,31.70
2022-08-16T17:07:54.091Z,31.70
2022-08-16T17:13:45.238Z,31.60
2022-08-16T17:16:32.745Z,31.50
2022-08-16T17:19:23.889Z,31.50
2022-08-16T17:22:14.550Z,31.50
2022-08-16T17:25:20.091Z,31.40
2022-08-16T17:28:58.200Z,31.40
2022-08-16T17:31:13.940Z,31.70
2022-08-16T17:34:05.457Z,32.10
2022-08-16T17:39:26.218Z,31.80
2022-08-16T17:39:28.833Z,31.70
2022-08-16T17:40:40.249Z,31.50
2022-08-16T17:43:24.794Z,31.40
2022-08-16T17:46:51.055Z,31.20
2022-08-16T17:49:16.846Z,31.40
2022-08-16T17:52:03.389Z,31.50
2022-08-16T17:54:49.001Z,31.60
2022-08-16T17:57:35.141Z,31.50
2022-08-16T18:00:23.182Z,31.60
2022-08-16T18:03:15.210Z,31.50
2022-08-16T18:06:12.540Z,31.40
2022-08-16T18:09:02.615Z,31.20
2022-08-16T18:11:50.059Z,31.20
2022-08-16T18:14:51.310Z,31.10
2022-08-16T18:17:38.852Z,31.00
2022-08-16T18:20:43.968Z,31.00
2022-08-16T18:23:29.814Z,31.00
2022-08-16T18:26:15.745Z,30.90
2022-08-16T18:29:02.517Z,30.80
2022-08-16T18:31:50.874Z,30.70
2022-08-16T18:34:37.942Z,30.80
2022-08-16T18:37:24.409Z,30.80
2022-08-16T18:40:11.104Z,30.70
2022-08-16T18:43:00.070Z,30.60
2022-08-16T18:45:48.928Z,30.60
2022-08-16T18:48:34.473Z,30.70
2022-08-16T18:51:24.835Z,30.70
2022-08-16T18:54:13.025Z,30.50
2022-08-16T18:56:59.202Z,30.40
2022-08-16T18:59:45.023Z,30.40
2022-08-16T19:02:57.005Z,30.50
2022-08-16T19:05:41.236Z,30.40
2022-08-16T19:08:27.277Z,30.40
2022-08-16T19:11:20.044Z,30.40
2022-08-16T19:14:05.768Z,30.40
2022-08-16T19:16:53.943Z,30.60
2022-08-16T19:19:39.695Z,30.80
2022-08-16T19:22:59.628Z,30.60
2022-08-16T19:25:48.910Z,30.20
2022-08-16T19:28:50.784Z,30.00
2022-08-16T19:31:43.962Z,30.10
2022-08-16T19:34:29.874Z,30.40
2022-08-16T19:37:15.761Z,30.60
2022-08-16T19:40:02.446Z,30.80
2022-08-16T19:42:48.650Z,31.00
2022-08-16T19:45:34.145Z,31.00
2022-08-16T19:48:19.829Z,31.00
2022-08-16T19:51:06.173Z,30.90
2022-08-16T19:53:51.837Z,30.80
2022-08-16T19:56:37.935Z,30.80
2022-08-16T19:59:39.242Z,30.70
2022-08-16T20:02:36.256Z,30.70
2022-08-16T20:05:28.741Z,30.60
2022-08-16T20:08:16.601Z,30.50
2022-08-16T20:11:02.218Z,30.60
2022-08-16T20:13:48.085Z,30.70
2022-08-16T20:16:33.467Z,30.60
2022-08-16T20:19:19.460Z,30.40
2022-08-16T20:22:25.623Z,30.50
2022-08-16T20:25:28.372Z,30.20
2022-08-16T20:28:14.489Z,29.90
2022-08-16T20:31:20.557Z,30.10
2022-08-16T20:34:06.466Z,29.90
2022-08-16T20:36:52.118Z,29.80
2022-08-16T20:39:38.760Z,29.50
2022-08-16T20:42:27.243Z,29.60
2022-08-16T20:45:13.142Z,29.30
2022-08-16T20:47:59.000Z,29.30
2022-08-16T20:50:45.280Z,29.50
2022-08-16T20:53:30.851Z,29.60
2022-08-16T20:56:16.718Z,29.90
2022-08-16T20:59:02.180Z,29.90
2022-08-16T21:01:50.532Z,29.80
2022-08-16T21:04:36.559Z,29.60
2022-08-16T21:07:22.566Z,29.20
2022-08-16T21:10:08.718Z,29.20
2022-08-16T21:12:58.175Z,29.00
2022-08-16T21:15:43.944Z,29.20
2022-08-16T21:18:29.612Z,29.30
2022-08-16T21:21:15.483Z,29.30
2022-08-16T21:24:00.935Z,29.20
2022-08-16T21:26:49.837Z,29.00
2022-08-16T21:29:43.097Z,28.90
2022-08-16T21:32:35.594Z,28.90
2022-08-16T21:35:21.696Z,28.90
2022-08-16T21:38:28.903Z,28.90
2022-08-16T21:41:14.005Z,28.80
2022-08-16T21:43:59.777Z,28.50
2022-08-16T21:46:45.397Z,28.60
2022-08-16T21:49:31.361Z,28.50
2022-08-16T21:52:26.868Z,28.10
2022-08-16T21:55:12.468Z,27.70
2022-08-16T21:57:58.270Z,27.70
2022-08-16T22:00:44.096Z,27.90
2022-08-16T22:03:33.533Z,28.20
2022-08-16T22:06:19.748Z,28.40
2022-08-16T22:09:07.103Z,28.50
2022-08-16T22:11:52.518Z,28.50
2022-08-16T22:14:38.878Z,28.30
2022-08-16T22:17:24.363Z,27.80
2022-08-16T22:20:11.132Z,27.50
2022-08-16T22:23:15.304Z,27.30
2022-08-16T22:26:00.879Z,27.20
2022-08-16T22:28:46.399Z,27.00
2022-08-16T22:31:33.047Z,26.80
2022-08-16T22:34:19.012Z,27.00
2022-08-16T22:37:04.610Z,27.40
2022-08-16T22:39:50.098Z,27.60
2022-08-16T22:42:45.671Z,27.70
2022-08-16T22:45:32.014Z,27.70
2022-08-16T22:48:18.010Z,27.90
2022-08-16T22:51:04.023Z,27.80
2022-08-16T22:53:50.261Z,27.70
2022-08-16T22:56:35.700Z,27.80
2022-08-16T22:59:21.496Z,27.80
2022-08-16T23:02:09.799Z,27.80
2022-08-16T23:04:56.279Z,27.70
2022-08-16T23:07:41.672Z,27.60
2022-08-16T23:10:27.283Z,27.60
2022-08-16T23:13:13.835Z,27.30
2022-08-16T23:16:10.713Z,27.20
2022-08-16T23:18:57.461Z,27.10
2022-08-16T23:21:46.875Z,27.10
2022-08-16T23:24:37.092Z,27.10
2022-08-16T23:27:40.547Z,27.00
2022-08-16T23:30:27.709Z,27.00
2022-08-16T23:33:15.351Z,27.00
2022-08-16T23:36:01.965Z,27.00
2022-08-16T23:38:48.036Z,26.80
2022-08-16T23:41:34.908Z,26.70
2022-08-16T23:44:56.410Z,26.70
2022-08-16T23:47:26.538Z,26.70
2022-08-16T23:50:12.325Z,26.70
2022-08-16T23:53:16.247Z,26.90
2022-08-16T23:56:11.207Z,27.10
2022-08-16T23:59:02.275Z,27.10
